Time;durP1;ratioP1;P1;durP2;ratioP2;P2;SDS_P1;SDS_P2;PMS_P1;PMS_P2;Temp;Humidity;BMP_temperature;BMP_pressure;BME280_temperature;BME280_humidity;BME280_pressure;Samples;Min_cycle;Max_cycle;Signal;HPM_P1;HPM_P2
2023/01/25 00:00:19;;;;;;;14.60;6.50;;;;;;;17.84;49.45;101982.13;5030815;28;20224;-61
2023/01/25 00:02:45;;;;;;;11.93;5.17;;;;;;;17.82;49.43;101983.66;5036631;28;20192;-61
2023/01/25 00:05:10;;;;;;;14.70;5.10;;;;;;;17.84;49.33;101982.13;5034209;28;20211;-62
2023/01/25 00:07:36;;;;;;;24.10;6.50;;;;;;;17.85;49.45;101978.09;5030781;28;20184;-62
2023/01/25 00:10:01;;;;;;;18.00;5.57;;;;;;;17.85;49.69;101972.38;5030266;28;20196;-61
2023/01/25 00:12:26;;;;;;;14.90;5.63;;;;;;;17.85;49.80;101978.09;5029900;28;20184;-62
2023/01/25 00:14:52;;;;;;;13.30;4.57;;;;;;;17.89;49.84;101970.53;5030458;28;20286;-61
2023/01/25 00:17:17;;;;;;;16.27;5.80;;;;;;;17.87;49.53;101961.47;5030380;28;20811;-61
2023/01/25 00:19:43;;;;;;;20.43;5.90;;;;;;;17.86;49.85;101962.63;5039918;28;20188;-61
2023/01/25 00:22:08;;;;;;;16.50;5.50;;;;;;;17.84;49.75;101955.56;5050217;28;20559;-61
2023/01/25 00:24:34;;;;;;;15.07;5.27;;;;;;;17.91;49.71;101955.91;5048253;28;20721;-62
2023/01/25 00:26:59;;;;;;;17.30;5.40;;;;;;;17.88;49.63;101951.72;5037721;28;20199;-61
2023/01/25 00:29:24;;;;;;;15.53;4.47;;;;;;;17.87;49.76;101955.75;5049346;28;20179;-62
2023/01/25 00:32:00;;;;;;;15.10;6.03;;;;;;;17.86;49.93;101958.94;5049470;28;20257;-61
2023/01/25 00:34:27;;;;;;;13.83;4.47;;;;;;;17.82;50.38;101958.78;5033130;28;20172;-62
2023/01/25 00:36:57;;;;;;;11.47;5.03;;;;;;;17.83;50.01;101954.75;5046935;28;20438;-62
2023/01/25 00:39:23;;;;;;;12.63;5.50;;;;;;;17.84;50.23;101945.00;5050816;28;20426;-61
2023/01/25 00:41:48;;;;;;;14.43;5.40;;;;;;;17.85;50.39;101940.94;5051028;28;20493;-61
2023/01/25 00:44:14;;;;;;;12.20;5.20;;;;;;;17.84;50.42;101950.72;5044201;28;20457;-61
2023/01/25 00:46:39;;;;;;;16.00;6.03;;;;;;;17.82;50.40;101935.94;5048312;28;20226;-62
2023/01/25 00:49:05;;;;;;;11.90;5.60;;;;;;;17.84;50.53;101933.56;5048599;28;20230;-62
2023/01/25 00:51:30;;;;;;;12.13;4.77;;;;;;;17.83;50.71;101937.59;5046919;28;20185;-62
2023/01/25 00:53:56;;;;;;;13.07;5.13;;;;;;;17.81;50.37;101933.41;5047779;28;20186;-60
2023/01/25 00:56:21;;;;;;;11.13;5.50;;;;;;;17.78;50.78;101934.06;5049191;28;20163;-61
2023/01/25 00:58:47;;;;;;;13.80;4.43;;;;;;;17.83;50.58;101933.91;5050214;28;20177;-62
2023/01/25 01:01:12;;;;;;;14.87;6.33;;;;;;;17.84;50.53;101933.56;5049803;28;20258;-61
2023/01/25 01:03:38;;;;;;;9.67;4.93;;;;;;;17.85;50.61;101923.00;5033641;28;20262;-61
2023/01/25 01:06:08;;;;;;;9.03;4.73;;;;;;;17.86;50.86;101925.47;5034289;28;20227;-61
2023/01/25 01:08:35;;;;;;;9.23;4.80;;;;;;;17.78;50.62;101931.22;5032305;28;20543;-61
2023/01/25 01:11:01;;;;;;;14.53;4.90;;;;;;;17.85;50.45;101923.00;5032752;28;20434;-62
2023/01/25 01:13:27;;;;;;;9.90;4.57;;;;;;;17.79;51.06;101922.31;5033052;28;20516;-61
2023/01/25 01:15:53;;;;;;;11.07;4.80;;;;;;;17.74;50.78;101913.91;5046857;28;20925;-61
2023/01/25 01:18:18;;;;;;;10.80;4.67;;;;;;;17.80;50.82;101912.56;5053548;28;20433;-62
2023/01/25 01:20:48;;;;;;;10.07;3.70;;;;;;;17.81;51.08;101914.22;5053641;28;20600;-61
2023/01/25 01:23:14;;;;;;;15.43;5.80;;;;;;;17.78;50.87;101906.34;5053155;28;20179;-61
2023/01/25 01:25:39;;;;;;;12.53;5.17;;;;;;;17.78;51.17;101905.50;5045820;28;20516;-61
2023/01/25 01:28:04;;;;;;;16.23;4.73;;;;;;;17.79;50.69;101896.59;5053889;28;20245;-61
2023/01/25 01:30:30;;;;;;;15.87;4.70;;;;;;;17.75;50.96;101906.19;5044654;28;20546;-61
2023/01/25 01:32:55;;;;;;;8.77;3.93;;;;;;;17.81;50.90;101910.56;5034583;28;20180;-62
2023/01/25 01:35:21;;;;;;;12.70;4.87;;;;;;;17.75;51.15;101912.72;5035165;28;20682;-62
2023/01/25 01:37:46;;;;;;;11.60;4.63;;;;;;;17.78;50.95;101912.06;5036140;28;20218;-62
2023/01/25 01:40:15;;;;;;;11.83;4.27;;;;;;;17.78;51.17;101912.06;5036471;28;20188;-62
2023/01/25 01:42:57;;;;;;;17.43;4.73;;;;;;;17.79;50.90;101919.44;5034389;28;20223;-62
2023/01/25 01:45:44;;;;;;;11.73;4.60;;;;;;;17.76;51.38;101928.69;5034080;28;20455;-62
2023/01/25 01:48:32;;;;;;;9.30;4.63;;;;;;;17.79;50.90;101930.88;5048437;28;20427;-62
2023/01/25 01:51:01;;;;;;;8.10;3.93;;;;;;;17.76;51.19;101934.41;5032040;28;20415;-61
2023/01/25 01:53:26;;;;;;;17.10;5.07;;;;;;;17.75;51.25;101923.31;5033332;28;20407;-62
2023/01/25 01:55:52;;;;;;;9.63;4.00;;;;;;;17.71;51.53;101922.31;5032588;28;20434;-61
2023/01/25 01:58:17;;;;;;;10.50;5.20;;;;;;;17.74;51.17;101910.19;5035012;28;20359;-61
2023/01/25 02:06:38;;;;;;;13.33;4.60;;;;;;;17.76;51.37;101908.69;5075961;22;20589;-62
2023/01/25 02:12:03;;;;;;;9.83;4.50;;;;;;;17.71;51.35;101917.41;4538779;22;20491;-59
2023/01/25 02:14:29;;;;;;;10.23;3.90;;;;;;;17.70;51.55;101912.06;5045912;28;20422;-59
2023/01/25 02:16:54;;;;;;;9.70;4.10;;;;;;;17.72;51.40;101901.13;5057801;28;20456;-58
2023/01/25 02:19:47;;;;;;;9.27;4.20;;;;;;;17.68;51.79;101895.25;5050078;28;20803;-58
2023/01/25 02:22:15;;;;;;;10.20;4.80;;;;;;;17.70;51.56;101906.38;5050247;28;20168;-59
2023/01/25 02:24:45;;;;;;;7.93;3.77;;;;;;;17.70;50.99;101904.31;5041778;28;20968;-59
2023/01/25 02:27:10;;;;;;;7.90;4.00;;;;;;;17.73;51.28;101914.25;5035413;28;20433;-59
2023/01/25 02:29:36;;;;;;;12.17;4.83;;;;;;;17.68;51.47;101906.69;5053140;28;20443;-58
2023/01/25 02:32:02;;;;;;;10.87;4.30;;;;;;;17.70;51.54;101900.66;5058878;28;20176;-58
2023/01/25 02:34:27;;;;;;;10.60;4.63;;;;;;;17.66;51.56;101903.31;5051794;28;20187;-58
2023/01/25 02:36:53;;;;;;;12.27;5.10;;;;;;;17.69;51.59;101904.66;5051338;28;20414;-59
2023/01/25 02:39:18;;;;;;;9.80;4.53;;;;;;;17.68;51.97;101897.28;5051885;28;20193;-58
2023/01/25 02:41:44;;;;;;;8.93;4.23;;;;;;;17.70;51.45;101894.94;5036095;28;20172;-58
2023/01/25 02:44:17;;;;;;;13.03;4.20;;;;;;;17.66;51.58;101891.88;5070289;28;20218;-58
2023/01/25 02:46:46;;;;;;;10.30;4.10;;;;;;;17.67;51.75;101879.31;5052194;28;20401;-58
2023/01/25 02:49:12;;;;;;;10.53;5.33;;;;;;;17.61;51.94;101889.19;5067976;28;20433;-59
2023/01/25 02:51:39;;;;;;;7.77;3.93;;;;;;;17.65;51.76;101895.09;5051588;28;20418;-58
2023/01/25 02:54:05;;;;;;;9.10;4.67;;;;;;;17.64;51.62;101879.97;5067016;28;20558;-59
2023/01/25 02:56:31;;;;;;;8.10;4.17;;;;;;;17.69;51.76;101885.50;5070041;28;20409;-58
2023/01/25 02:58:56;;;;;;;11.13;4.80;;;;;;;17.66;51.65;101886.19;5067219;28;20854;-58
2023/01/25 03:01:22;;;;;;;12.60;4.20;;;;;;;17.62;51.64;101873.78;5071215;28;20243;-58
2023/01/25 03:03:47;;;;;;;10.07;4.30;;;;;;;17.66;51.63;101876.78;5061275;28;20232;-58
2023/01/25 03:06:13;;;;;;;7.20;4.00;;;;;;;17.65;51.80;101878.78;5090994;28;20178;-58
2023/01/25 03:08:38;;;;;;;7.50;4.23;;;;;;;17.63;51.71;101881.16;5054393;28;20190;-58
2023/01/25 03:11:05;;;;;;;8.33;3.90;;;;;;;17.62;51.96;101885.19;5050538;28;20171;-59
2023/01/25 03:13:30;;;;;;;10.37;4.17;;;;;;;17.65;51.73;101881.66;5060272;28;20543;-58
2023/01/25 03:16:14;;;;;;;6.53;3.87;;;;;;;17.64;51.73;101887.69;5069729;28;20416;-58
2023/01/25 03:18:40;;;;;;;7.13;4.07;;;;;;;17.67;51.67;101887.03;5080123;28;20812;-59
2023/01/25 03:21:09;;;;;;;5.40;3.53;;;;;;;17.69;51.68;101887.53;5050079;28;20525;-59
2023/01/25 03:23:34;;;;;;;8.87;4.63;;;;;;;17.65;51.64;101877.97;5050090;28;20167;-58
2023/01/25 03:26:07;;;;;;;8.63;4.50;;;;;;;17.57;52.10;101871.09;5055361;28;20908;-58
2023/01/25 03:28:33;;;;;;;10.73;3.83;;;;;;;17.63;51.91;101863.16;5062434;28;20191;-58
2023/01/25 03:30:58;;;;;;;9.67;4.27;;;;;;;17.64;51.76;101877.13;5050464;28;21076;-58
2023/01/25 03:33:23;;;;;;;8.30;4.43;;;;;;;17.63;51.43;101869.72;5051389;28;20689;-58
2023/01/25 03:35:53;;;;;;;7.93;4.07;;;;;;;17.62;51.62;101873.78;5067842;28;20545;-58
2023/01/25 03:38:19;;;;;;;9.93;3.80;;;;;;;17.62;51.92;101856.63;5070757;28;20170;-58
2023/01/25 03:40:45;;;;;;;8.33;4.33;;;;;;;17.57;51.77;101865.38;5070486;28;20420;-59
2023/01/25 03:43:10;;;;;;;10.10;4.23;;;;;;;17.64;51.58;101867.69;5065440;28;20438;-58
2023/01/25 03:45:36;;;;;;;10.40;3.97;;;;;;;17.62;51.83;101867.22;5063241;28;20191;-58
2023/01/25 03:48:01;;;;;;;8.03;3.93;;;;;;;17.62;51.67;101867.22;5070363;28;20170;-59
2023/01/25 03:50:26;;;;;;;5.67;3.30;;;;;;;17.57;52.29;101865.38;5051937;28;20187;-58
2023/01/25 03:52:58;;;;;;;6.73;3.93;;;;;;;17.61;51.97;101854.94;5031596;28;20195;-58
2023/01/25 03:55:24;;;;;;;10.20;4.13;;;;;;;17.59;51.62;101860.16;5048627;28;20163;-59
2023/01/25 03:57:49;;;;;;;7.37;4.47;;;;;;;17.62;51.60;101853.78;5067770;28;20438;-59
2023/01/25 04:00:15;;;;;;;6.40;3.67;;;;;;;17.57;51.57;101851.09;5050703;28;20195;-58
2023/01/25 04:02:40;;;;;;;6.67;3.63;;;;;;;17.62;51.66;101856.63;5049683;28;20186;-58
2023/01/25 04:05:07;;;;;;;10.00;4.13;;;;;;;17.58;51.73;101864.19;5088152;28;20192;-58
2023/01/25 04:07:33;;;;;;;9.47;4.03;;;;;;;17.64;51.72;101856.28;5075583;28;20696;-59
2023/01/25 04:09:58;;;;;;;7.63;3.70;;;;;;;17.58;51.69;101858.47;5070008;28;20405;-58
2023/01/25 04:12:24;;;;;;;6.73;4.10;;;;;;;17.57;52.00;101853.94;5069454;28;20515;-59
2023/01/25 04:14:49;;;;;;;7.07;3.57;;;;;;;17.62;51.43;101853.78;5069786;28;20623;-59
2023/01/25 04:17:14;;;;;;;8.27;4.17;;;;;;;17.63;51.75;101857.47;5058039;28;20191;-58
2023/01/25 04:19:40;;;;;;;8.30;4.13;;;;;;;17.59;51.98;101853.59;5050259;28;20611;-59
2023/01/25 04:22:05;;;;;;;6.87;3.63;;;;;;;17.62;51.77;101853.78;5049729;28;20187;-58
2023/01/25 04:24:31;;;;;;;10.87;4.40;;;;;;;17.62;51.92;101856.63;5049682;28;20237;-59
2023/01/25 04:26:56;;;;;;;6.07;3.87;;;;;;;17.60;51.93;101856.13;5060431;28;20186;-59
2023/01/25 04:29:22;;;;;;;8.10;4.37;;;;;;;17.60;52.03;101846.72;5069509;28;20644;-58
2023/01/25 04:31:47;;;;;;;6.20;4.10;;;;;;;17.60;51.96;101847.53;5069709;28;20166;-58
2023/01/25 04:34:12;;;;;;;8.27;4.20;;;;;;;17.55;51.83;101842.00;5066559;28;20179;-58
2023/01/25 04:36:38;;;;;;;6.90;4.10;;;;;;;17.57;51.86;101845.38;5048581;28;20172;-59
2023/01/25 04:39:03;;;;;;;6.87;3.57;;;;;;;17.62;51.66;101845.22;5048629;28;20156;-59
2023/01/25 04:41:29;;;;;;;6.43;3.40;;;;;;;17.59;51.93;101845.03;5048712;28;20160;-58
2023/01/25 04:43:55;;;;;;;7.10;4.07;;;;;;;17.58;51.85;101847.06;5063437;28;20557;-59
2023/01/25 04:46:20;;;;;;;8.47;3.80;;;;;;;17.62;51.93;101844.34;5064993;28;20423;-58
2023/01/25 04:48:46;;;;;;;9.03;3.87;;;;;;;17.66;51.75;101846.19;5073168;28;20175;-59
2023/01/25 04:51:13;;;;;;;10.10;3.80;;;;;;;17.57;51.85;101842.53;5074005;28;20594;-58
2023/01/25 04:53:38;;;;;;;9.27;4.27;;;;;;;17.60;51.82;101843.88;5065417;28;20187;-58
2023/01/25 04:56:04;;;;;;;8.00;4.20;;;;;;;17.60;51.82;101841.00;5090976;28;20412;-58
2023/01/25 04:58:29;;;;;;;5.40;3.33;;;;;;;17.59;51.91;101845.88;5093801;28;20183;-58
2023/01/25 05:01:00;;;;;;;7.97;4.63;;;;;;;17.59;51.74;101833.59;5093861;28;20170;-58
2023/01/25 05:03:25;;;;;;;10.60;4.03;;;;;;;17.59;51.85;101837.31;5073666;28;20247;-58
2023/01/25 05:05:50;;;;;;;7.00;3.40;;;;;;;17.59;51.87;101839.31;5093340;28;20451;-58
2023/01/25 05:08:16;;;;;;;9.77;4.40;;;;;;;17.55;52.09;101839.16;5076224;28;20246;-58
2023/01/25 05:10:41;;;;;;;8.40;3.73;;;;;;;17.56;51.74;101835.13;5053510;28;20654;-58
2023/01/25 05:13:07;;;;;;;5.43;3.30;;;;;;;17.57;51.96;101838.81;5060261;28;20653;-59
2023/01/25 05:15:32;;;;;;;6.63;4.27;;;;;;;17.58;51.83;101834.78;5052923;28;20156;-59
2023/01/25 05:17:58;;;;;;;6.47;3.43;;;;;;;17.56;52.21;101840.00;5053265;28;20163;-58
2023/01/25 05:20:23;;;;;;;8.83;4.67;;;;;;;17.58;51.63;101832.78;5054694;28;20179;-59
2023/01/25 05:22:48;;;;;;;6.80;4.00;;;;;;;17.57;51.93;101831.09;5052193;28;20229;-58
2023/01/25 05:27:58;;;;;;;6.40;3.80;;;;;;;17.64;51.81;101825.72;5069970;28;20181;-58
2023/01/25 05:30:24;;;;;;;6.73;3.93;;;;;;;17.63;51.64;101829.75;5072264;28;20750;-58
2023/01/25 05:32:49;;;;;;;10.33;3.90;;;;;;;17.60;51.74;101841.84;5072064;28;20179;-59
2023/01/25 05:35:15;;;;;;;7.40;3.43;;;;;;;17.61;51.72;101828.41;5038248;28;20190;-58
2023/01/25 05:37:40;;;;;;;6.20;4.27;;;;;;;17.61;51.69;101831.25;5052917;28;20187;-58
2023/01/25 05:40:07;;;;;;;6.53;3.90;;;;;;;17.59;51.84;101833.59;5054989;28;20179;-58
2023/01/25 05:42:32;;;;;;;5.60;3.10;;;;;;;17.56;52.20;101832.25;5059723;28;20265;-58
2023/01/25 05:44:58;;;;;;;6.00;3.80;;;;;;;17.61;51.65;101822.69;5072252;28;20437;-58
2023/01/25 05:47:23;;;;;;;6.77;3.23;;;;;;;17.59;52.06;101822.19;5080278;28;20216;-58
2023/01/25 05:49:48;;;;;;;6.03;3.70;;;;;;;17.59;51.78;101819.31;5075668;28;20179;-59
2023/01/25 05:52:14;;;;;;;7.50;3.83;;;;;;;17.60;51.58;101827.56;5072438;28;20155;-59
2023/01/25 05:54:40;;;;;;;5.77;3.27;;;;;;;17.59;51.46;101830.75;5069232;28;20180;-58
2023/01/25 05:57:05;;;;;;;11.93;3.90;;;;;;;17.64;51.96;101822.00;5090479;28;20186;-58
2023/01/25 05:59:30;;;;;;;6.50;3.50;;;;;;;17.64;51.54;101820.00;5092542;28;20625;-58
2023/01/25 06:01:56;;;;;;;8.57;4.20;;;;;;;17.60;51.77;101821.03;5063911;28;20176;-59
2023/01/25 06:04:22;;;;;;;7.37;4.30;;;;;;;17.59;51.87;101823.03;5078345;28;20201;-58
2023/01/25 06:06:47;;;;;;;5.63;3.60;;;;;;;17.60;51.56;101818.16;5082470;28;20175;-58
2023/01/25 06:09:13;;;;;;;6.93;3.77;;;;;;;17.66;52.01;101819.66;5051906;28;20156;-59
2023/01/25 06:11:38;;;;;;;6.40;4.20;;;;;;;17.59;51.95;101827.88;5051858;28;20290;-58
2023/01/25 06:14:04;;;;;;;6.07;3.70;;;;;;;17.60;52.00;101824.69;5066898;28;20175;-58
2023/01/25 06:16:29;;;;;;;7.10;3.80;;;;;;;17.64;51.67;101820.00;5071246;28;20237;-58
2023/01/25 06:18:54;;;;;;;9.70;3.80;;;;;;;17.62;51.82;101818.66;5071475;28;20175;-58
2023/01/25 06:21:20;;;;;;;6.73;4.00;;;;;;;17.57;52.07;101816.81;5071228;28;20528;-58
2023/01/25 06:23:45;;;;;;;6.90;4.07;;;;;;;17.57;51.79;101813.97;5052995;28;20184;-58
2023/01/25 06:26:12;;;;;;;5.73;2.90;;;;;;;17.62;51.93;101821.50;5050410;28;20168;-58
2023/01/25 06:28:37;;;;;;;6.50;3.87;;;;;;;17.62;52.01;101813.78;5051062;28;20164;-58
2023/01/25 06:31:07;;;;;;;5.57;3.33;;;;;;;17.61;51.44;101811.28;5051938;28;20501;-58
2023/01/25 06:33:33;;;;;;;5.67;3.30;;;;;;;17.63;51.80;101811.75;5062932;28;20262;-58
2023/01/25 06:36:03;;;;;;;5.77;3.60;;;;;;;17.62;51.74;101810.94;5070532;28;20485;-58
2023/01/25 06:38:29;;;;;;;6.57;3.27;;;;;;;17.59;51.63;101797.31;5035574;28;20175;-58
2023/01/25 06:41:00;;;;;;;7.67;4.13;;;;;;;17.64;51.88;101802.00;5051895;28;20905;-58
2023/01/25 06:43:25;;;;;;;6.23;3.50;;;;;;;17.65;51.59;101798.81;5057667;28;20333;-59
2023/01/25 06:45:51;;;;;;;6.33;3.40;;;;;;;17.69;51.78;101798.97;5050376;28;20545;-59
2023/01/25 06:48:16;;;;;;;6.00;3.53;;;;;;;17.68;51.48;101797.31;5051078;28;20165;-58
2023/01/25 06:50:41;;;;;;;7.13;3.63;;;;;;;17.66;51.81;101793.97;5053005;28;20274;-58
2023/01/25 06:53:07;;;;;;;5.30;3.13;;;;;;;17.60;51.64;101793.28;5050537;28;20222;-59
2023/01/25 06:55:32;;;;;;;7.07;3.33;;;;;;;17.59;51.87;101788.75;5052277;28;20183;-59
2023/01/25 06:57:59;;;;;;;6.53;3.63;;;;;;;17.67;51.80;101789.91;5050673;28;20172;-58
2023/01/25 07:00:24;;;;;;;5.10;3.00;;;;;;;17.63;51.60;101788.91;5052068;28;21049;-58
2023/01/25 07:02:50;;;;;;;7.23;3.40;;;;;;;17.67;51.65;101789.91;5066272;28;20422;-58
2023/01/25 07:05:15;;;;;;;6.47;3.70;;;;;;;17.65;51.74;101787.41;5072719;28;20210;-58
2023/01/25 07:07:44;;;;;;;6.57;3.97;;;;;;;17.59;51.69;101782.19;5060060;28;20183;-58
2023/01/25 07:10:09;;;;;;;6.30;3.50;;;;;;;17.66;51.38;101779.69;5032592;28;20362;-58
2023/01/25 07:12:35;;;;;;;7.90;3.83;;;;;;;17.70;51.83;101778.66;5053761;28;20875;-58
2023/01/25 07:15:01;;;;;;;5.47;3.80;;;;;;;17.63;51.58;101784.06;5044151;28;20190;-58
2023/01/25 07:17:26;;;;;;;6.53;3.63;;;;;;;17.59;51.62;101787.91;5069810;28;20432;-58
2023/01/25 07:19:52;;;;;;;5.83;3.47;;;;;;;17.62;51.71;101782.38;5070627;28;20171;-58
2023/01/25 07:22:17;;;;;;;8.17;3.70;;;;;;;17.62;51.69;101778.69;5065320;28;20831;-58
2023/01/25 07:24:48;;;;;;;8.33;3.20;;;;;;;17.70;51.52;101777.84;5052969;28;20689;-58
2023/01/25 07:27:15;;;;;;;5.80;3.17;;;;;;;17.66;51.53;101777.66;5067601;28;20163;-58
2023/01/25 07:29:40;;;;;;;4.57;3.10;;;;;;;17.64;51.67;101774.31;5063637;28;20432;-58
2023/01/25 07:32:06;;;;;;;5.90;3.33;;;;;;;17.59;51.65;101780.19;5069382;28;20425;-59
2023/01/25 07:34:31;;;;;;;5.20;3.30;;;;;;;17.67;51.37;101778.50;5068912;28;20167;-59
2023/01/25 07:36:56;;;;;;;6.07;3.40;;;;;;;17.67;51.57;101784.22;5072188;28;20186;-58
2023/01/25 07:39:22;;;;;;;6.53;3.60;;;;;;;17.67;51.67;101782.22;5069159;28;20171;-58
2023/01/25 07:41:47;;;;;;;5.60;3.37;;;;;;;17.66;51.55;101786.22;5068424;28;20182;-58
2023/01/25 07:44:13;;;;;;;6.50;3.80;;;;;;;17.68;51.35;101785.88;5068859;28;20187;-57
2023/01/25 07:46:38;;;;;;;5.50;3.30;;;;;;;17.68;51.36;101791.59;5073682;28;20170;-58
2023/01/25 07:49:04;;;;;;;6.47;3.80;;;;;;;17.69;51.68;101791.25;5069628;28;20171;-58
2023/01/25 07:51:29;;;;;;;6.53;3.30;;;;;;;17.65;51.59;101787.41;5070283;28;20255;-58
2023/01/25 07:54:00;;;;;;;8.07;4.80;;;;;;;17.21;48.10;101793.44;5062378;28;20925;-58
2023/01/25 07:56:30;;;;;;;11.70;8.20;;;;;;;16.91;50.34;101800.16;5064266;28;20546;-58
2023/01/25 07:58:56;;;;;;;17.90;10.80;;;;;;;16.79;46.86;101796.28;5065919;28;20943;-58
2023/01/25 08:01:23;;;;;;;21.13;13.13;;;;;;;17.36;50.12;101803.53;5064330;28;20451;-58
2023/01/25 08:03:48;;;;;;;20.33;13.33;;;;;;;17.90;47.33;101800.78;5066987;28;20561;-58
2023/01/25 08:06:14;;;;;;;22.90;11.40;;;;;;;18.23;46.75;101804.72;5065131;28;20505;-58
2023/01/25 08:08:46;;;;;;;14.70;9.10;;;;;;;18.11;45.09;101798.03;5058066;28;20191;-59
2023/01/25 08:11:19;;;;;;;14.00;8.63;;;;;;;18.66;44.40;101801.66;5064221;28;20171;-59
2023/01/25 08:13:45;;;;;;;14.77;7.40;;;;;;;18.85;44.49;101797.16;5068772;28;20936;-58
2023/01/25 08:16:11;;;;;;;11.03;7.43;;;;;;;18.83;44.77;101799.53;5069010;28;20547;-59
2023/01/25 08:18:37;;;;;;;11.83;7.50;;;;;;;18.98;44.01;101793.22;5058096;28;20179;-59
2023/01/25 08:21:03;;;;;;;13.10;7.23;;;;;;;19.05;44.32;101792.63;5068858;28;20432;-59
2023/01/25 08:23:28;;;;;;;11.60;6.70;;;;;;;18.94;44.90;101800.81;5052458;28;20170;-59
2023/01/25 08:25:55;;;;;;;12.20;6.33;;;;;;;18.97;44.86;101796.41;5067752;28;20681;-59
2023/01/25 08:28:21;;;;;;;10.47;6.57;;;;;;;18.48;45.96;101800.94;5050166;28;20197;-58
2023/01/25 08:30:46;;;;;;;12.70;6.57;;;;;;;18.79;46.95;101789.97;5069306;28;20412;-59
2023/01/25 08:33:12;;;;;;;12.60;6.87;;;;;;;18.83;47.73;101795.81;5064845;28;20448;-58
2023/01/25 08:35:38;;;;;;;10.90;7.03;;;;;;;18.68;46.96;101797.28;5068533;28;20163;-58
2023/01/25 08:38:03;;;;;;;9.63;6.10;;;;;;;18.45;47.57;101792.16;5067965;28;21184;-58
2023/01/25 08:40:28;;;;;;;15.47;6.80;;;;;;;18.32;47.71;101793.22;5061924;28;20217;-59
2023/01/25 08:42:54;;;;;;;19.83;6.90;;;;;;;18.35;47.65;101792.56;5060264;28;20278;-59
2023/01/25 08:45:19;;;;;;;18.00;7.20;;;;;;;18.23;47.59;101781.00;5066335;28;20236;-59
2023/01/25 08:47:45;;;;;;;20.30;8.10;;;;;;;18.22;48.01;101780.13;5055306;28;20234;-59
2023/01/25 08:50:10;;;;;;;17.73;7.07;;;;;;;18.14;47.46;101783.91;5065921;28;20186;-59
2023/01/25 08:52:36;;;;;;;20.27;7.67;;;;;;;18.04;47.98;101772.84;5055705;28;20202;-59
2023/01/25 08:55:01;;;;;;;33.00;7.97;;;;;;;18.03;46.96;101768.31;5059762;28;20533;-59
2023/01/25 08:57:26;;;;;;;21.93;7.40;;;;;;;18.03;47.20;101776.88;5068950;28;20201;-59
2023/01/25 08:59:52;;;;;;;17.30;6.93;;;;;;;18.04;47.12;101772.84;5056094;28;20186;-58
2023/01/25 09:02:20;;;;;;;16.83;6.50;;;;;;;18.06;46.96;101773.31;5051614;28;20195;-58
2023/01/25 09:04:45;;;;;;;17.03;6.63;;;;;;;17.91;47.15;101776.75;5070213;28;20256;-59
2023/01/25 09:07:10;;;;;;;18.17;7.23;;;;;;;17.93;47.90;101777.25;5061608;28;20438;-58
2023/01/25 09:09:36;;;;;;;17.97;7.13;;;;;;;17.86;47.91;101771.22;5030741;28;20176;-58
2023/01/25 09:12:01;;;;;;;25.33;8.10;;;;;;;17.87;49.41;101766.34;5058252;28;20612;-58
2023/01/25 09:14:27;;;;;;;28.20;7.30;;;;;;;17.90;50.17;101763.63;5064578;28;20897;-58
2023/01/25 09:16:52;;;;;;;32.27;8.23;;;;;;;17.82;50.92;101764.53;5068577;28;20228;-58
2023/01/25 09:19:18;;;;;;;25.37;6.47;;;;;;;17.78;50.10;101763.53;5060842;28;20209;-58
2023/01/25 09:21:43;;;;;;;30.97;7.90;;;;;;;17.84;50.23;101767.88;5049391;28;20187;-58
2023/01/25 09:24:08;;;;;;;15.07;5.53;;;;;;;17.88;50.40;101768.00;5048804;28;20673;-58
2023/01/25 09:26:36;;;;;;;28.47;7.80;;;;;;;17.79;50.53;101758.63;5051354;28;20191;-58
2023/01/25 09:29:02;;;;;;;17.10;6.63;;;;;;;17.78;50.73;101765.53;5049332;28;20180;-59
2023/01/25 09:31:28;;;;;;;22.13;6.90;;;;;;;17.84;50.55;101767.00;5036437;28;20553;-58
2023/01/25 09:33:55;;;;;;;20.13;7.27;;;;;;;17.89;50.34;101763.97;5052558;28;20160;-59
2023/01/25 09:36:20;;;;;;;19.13;6.93;;;;;;;17.87;50.21;101766.34;5052558;28;20422;-58
2023/01/25 09:38:46;;;;;;;18.77;6.70;;;;;;;17.84;50.64;101756.44;5090768;28;20493;-58
2023/01/25 09:41:32;;;;;;;28.60;6.30;;;;;;;17.88;50.60;101760.28;5063805;28;20187;-58
2023/01/25 09:44:08;;;;;;;11.73;5.80;;;;;;;17.84;50.60;101755.59;5070216;28;20194;-58
2023/01/25 09:46:52;;;;;;;22.77;6.93;;;;;;;17.92;50.57;101766.16;5071567;28;20405;-59
2023/01/25 09:49:56;;;;;;;15.53;5.70;;;;;;;17.95;50.49;101756.88;5071502;28;20424;-58
2023/01/25 09:52:52;;;;;;;13.40;5.80;;;;;;;17.92;50.93;101755.59;5069515;28;20534;-58
2023/01/25 09:55:19;;;;;;;20.80;6.30;;;;;;;17.96;51.16;101764.31;5051028;28;20823;-58
2023/01/25 09:57:45;;;;;;;16.60;5.87;;;;;;;17.97;50.81;101749.66;5049323;28;20421;-59
2023/01/25 10:00:22;;;;;;;16.90;5.80;;;;;;;17.99;51.56;101752.16;5020677;28;20472;-58
2023/01/25 10:02:54;;;;;;;17.40;5.73;;;;;;;18.00;51.47;101750.97;5016798;28;20186;-58
2023/01/25 10:05:21;;;;;;;17.20;5.70;;;;;;;17.93;51.43;101747.84;5072613;28;20448;-58
2023/01/25 10:07:57;;;;;;;16.00;5.20;;;;;;;17.95;51.14;101752.03;5063954;28;21104;-58
2023/01/25 10:10:29;;;;;;;16.10;6.30;;;;;;;17.93;51.15;101750.69;5053862;28;20425;-58
2023/01/25 10:12:54;;;;;;;14.77;5.00;;;;;;;17.94;51.76;101744.63;5038992;28;20573;-58
2023/01/25 10:15:21;;;;;;;13.83;5.13;;;;;;;17.93;50.80;101742.97;5050834;28;20937;-59
2023/01/25 10:18:02;;;;;;;18.93;5.67;;;;;;;17.96;51.28;101745.13;5033889;28;20196;-58
2023/01/25 10:20:44;;;;;;;13.27;5.17;;;;;;;17.90;51.32;101745.69;5019721;28;20445;-58
2023/01/25 10:23:32;;;;;;;10.73;4.87;;;;;;;17.87;51.47;101744.34;5018143;28;20429;-58
2023/01/25 10:25:59;;;;;;;16.60;6.10;;;;;;;17.85;51.61;101746.69;5051169;28;20880;-58
2023/01/25 10:28:44;;;;;;;11.13;5.30;;;;;;;17.86;51.66;101736.94;5054065;28;20491;-58
2023/01/25 10:31:19;;;;;;;14.90;5.00;;;;;;;17.92;51.75;101744.16;5055015;28;20532;-58
2023/01/25 10:33:45;;;;;;;14.00;5.03;;;;;;;17.89;51.59;101743.97;5049688;28;20438;-58
2023/01/25 10:36:15;;;;;;;21.03;6.00;;;;;;;17.91;51.53;101741.63;5063271;28;20425;-58
2023/01/25 10:38:44;;;;;;;21.63;6.13;;;;;;;17.89;52.13;101730.53;5053086;28;20480;-59
2023/01/25 10:41:44;;;;;;;21.47;6.73;;;;;;;17.90;52.76;101731.38;5049702;28;20415;-58
2023/01/25 10:44:26;;;;;;;27.67;7.03;;;;;;;17.85;52.67;101729.53;4947299;29;20995;-58
2023/01/25 10:47:00;;;;;;;29.03;7.80;;;;;;;17.82;52.57;101730.25;5057604;28;20433;-58
2023/01/25 10:49:27;;;;;;;24.23;6.70;;;;;;;17.84;52.50;101729.88;5060494;28;20438;-58
2023/01/25 10:51:52;;;;;;;22.47;7.33;;;;;;;17.87;52.63;101726.34;5050435;28;20784;-58
2023/01/25 10:54:18;;;;;;;22.00;6.63;;;;;;;17.92;52.44;101729.03;5052595;28;20445;-59
2023/01/25 10:56:43;;;;;;;21.63;6.57;;;;;;;17.92;52.15;101727.00;5016057;28;20180;-58
2023/01/25 10:59:17;;;;;;;25.50;6.10;;;;;;;17.93;52.20;101719.25;5070244;28;20187;-58
2023/01/25 11:01:43;;;;;;;21.93;7.13;;;;;;;17.92;52.38;101711.88;5060273;28;20210;-58
2023/01/25 11:04:21;;;;;;;22.30;6.60;;;;;;;17.86;52.49;101714.06;5055163;28;20999;-58
2023/01/25 11:06:47;;;;;;;18.87;6.50;;;;;;;17.88;52.29;101708.88;5089744;28;20700;-59
2023/01/25 11:09:19;;;;;;;26.27;7.17;;;;;;;17.86;52.55;101701.81;5049708;28;20950;-58
2023/01/25 11:11:45;;;;;;;25.20;7.17;;;;;;;17.87;52.63;101701.50;5069589;28;20471;-58
2023/01/25 11:14:16;;;;;;;19.00;5.93;;;;;;;17.87;52.49;101700.63;5022132;28;20762;-58
2023/01/25 11:16:44;;;;;;;21.90;6.60;;;;;;;17.87;52.21;101704.34;5014773;28;20175;-59
2023/01/25 11:19:26;;;;;;;15.83;6.00;;;;;;;17.83;52.61;101689.06;5067559;28;20481;-59
2023/01/25 11:21:56;;;;;;;17.80;6.57;;;;;;;17.92;52.38;101689.03;5070279;28;20425;-58
2023/01/25 11:24:33;;;;;;;26.33;6.53;;;;;;;17.93;52.30;101691.53;5062175;28;20465;-59
2023/01/25 11:27:24;;;;;;;20.30;6.77;;;;;;;17.90;52.18;101677.09;5033284;28;20733;-58
2023/01/25 11:30:05;;;;;;;23.77;8.20;;;;;;;17.83;52.39;101682.50;5050001;28;20479;-58
2023/01/25 11:32:31;;;;;;;21.13;5.00;;;;;;;17.82;52.32;101677.97;5052409;28;21224;-58
2023/01/25 11:34:56;;;;;;;27.10;6.90;;;;;;;17.83;52.22;101660.50;5049457;28;20496;-58